• Join FlightAware (Why Join?)
  • Login
  • US Flag 
 
11:05PM EST


 

Airport Tracker/Info


-or-


 

Live Flight TrackerFlight Track Log ✈ ASQ5175 ✈ 11-May-2013 ✈ KCID - KATL

Flight Track Log - Related Links

Times and Time Zones

All times are in EDT time to prevent confusion due to time zone crossing. See the ASQ5175 flight status page for this flight to view local times or setup timezone preferences in your user account.

Time Position Orientation Groundspeed Altitude Reporting Facility
EDT Latitude Longitude Course Direction KTS MPH feet Rate Location/Type
01:37PM 41.8281 -91.7772 188° South 259 298 6,500  Level Chicago Center
01:38PM 41.7508 -91.7381 159° South 288 331 9,200 2,280 Climbing Chicago Center
01:39PM 41.6475 -91.6831 158° South 332 382 11,200 1,560 Climbing Chicago Center
01:40PM 41.5442 -91.6272 158° South 397 457 12,500 1,500 Climbing Chicago Center
01:41PM 41.4358 -91.5767 161° South 415 478 14,400 1,800 Climbing Chicago Center
01:42PM 41.3457 -91.5270 162° South  Level FlightAware Approximate
01:42PM 41.3250 -91.5292 162° South 419 482 16,200  Level Chicago Center
01:43PM 41.2086 -91.4775 162° South 424 488 17,900 1,680 Climbing Chicago Center
01:45PM 41.0961 -91.4283 162° South 428 493 19,700 1,740 Climbing Chicago Center
01:46PM 40.9697 -91.3736 162° South 419 482 21,500 1,560 Climbing Chicago Center
01:47PM 40.8561 -91.3228 161° South 427 491 22,900 1,320 Climbing Chicago Center
01:48PM 40.7394 -91.2725 162° South 424 488 24,300 1,260 Climbing Chicago Center
01:49PM 40.6267 -91.2247 162° South 426 490 25,600 1,080 Climbing Chicago Center
01:50PM 40.5164 -91.1761 161° South 421 484 26,600 960 Climbing Chicago Center
01:51PM 40.4053 -91.1283 162° South 421 484 27,600 840 Climbing Chicago Center
01:52PM 40.2756 -91.0725 162° South 423 487 28,500 660 Climbing Kansas City Center
01:53PM 40.1622 -91.0242 162° South 426 490 29,100 600 Climbing Kansas City Center
01:54PM 40.0267 -90.9669 162° South 428 493 29,800 660 Climbing Kansas City Center
01:55PM 39.9064 -90.9178 163° South 430 495 30,500 540 Climbing Kansas City Center
01:56PM 39.7911 -90.8669 161° South 435 501 31,000 240 Climbing Kansas City Center
01:57PM 39.6736 -90.8200 163° South 437 503 31,000  Level Kansas City Center
01:58PM 39.5575 -90.7719 162° South 440 506 31,000  Level Kansas City Center
01:59PM 39.4403 -90.7225 162° South 442 509 31,000  Level Kansas City Center
02:00PM 39.3244 -90.6744 162° South 441 507 31,000  Level Kansas City Center
02:01PM 39.1836 -90.6167 162° South 442 509 31,000  Level Kansas City Center
02:02PM 39.0664 -90.5675 162° South 443 510 31,000  Level Kansas City Center
02:03PM 38.9494 -90.5200 162° South 443 510 31,000  Level Kansas City Center
02:04PM 38.8369 -90.4481 154° Southeast 451 519 31,000  Level Kansas City Center
02:05PM 38.7536 -90.3239 131° Southeast 458 527 31,000  Level Kansas City Center
02:06PM 38.6619 -90.1900 131° Southeast 469 540 31,000  Level Kansas City Center
02:07PM 38.5756 -90.0644 131° Southeast 470 541 31,000  Level Kansas City Center
02:08PM 38.4894 -89.9403 132° Southeast 467 537 31,000  Level Kansas City Center
02:09PM 38.4042 -89.8169 131° Southeast 465 535 31,000  Level Kansas City Center
02:10PM 38.3031 -89.6683 131° Southeast 464 534 31,000  Level Kansas City Center
02:11PM 38.2106 -89.5367 132° Southeast 465 535 31,000  Level Kansas City Center
02:13PM 38.1253 -89.4150 132° Southeast 462 532 31,000  Level Kansas City Center
02:14PM 38.0397 -89.2933 132° Southeast 462 532 31,000  Level Kansas City Center
02:15PM 37.9475 -89.1622 132° Southeast 464 534 31,000  Level Kansas City Center
02:16PM 37.8692 -89.0500 131° Southeast 462 532 31,000  Level Kansas City Center
02:17PM 37.7758 -88.9128 131° Southeast 465 535 31,000  Level Kansas City Center
02:18PM 37.6894 -88.7925 132° Southeast 462 532 31,000  Level Kansas City Center
02:19PM 37.6000 -88.6681 132° Southeast 456 525 31,000  Level Kansas City Center
02:19PM 37.5697 -88.6300 135° Southeast 453 521 31,000  Level Memphis Center
02:20PM 37.4847 -88.5117 132° Southeast 463 533 31,000  Level Memphis Center
02:21PM 37.3953 -88.3858 132° Southeast 468 539 31,000  Level Memphis Center
02:22PM 37.3122 -88.2706 132° Southeast 462 532 31,000  Level Memphis Center
02:23PM 37.2247 -88.1481 132° Southeast 462 532 31,000  Level Memphis Center
02:24PM 37.1350 -88.0256 133° Southeast 468 539 31,000  Level Memphis Center
02:25PM 37.0472 -87.9058 133° Southeast 468 539 31,000  Level Memphis Center
02:26PM 36.9594 -87.7867 133° Southeast 462 532 31,000  Level Memphis Center
02:27PM 36.8736 -87.6700 133° Southeast 462 532 31,000  Level Memphis Center
02:28PM 36.7856 -87.5486 132° Southeast 462 532 31,000 -420 Level Memphis Center
02:29PM 36.6972 -87.4328 134° Southeast 462 532 30,200 -900 Descending Memphis Center
02:30PM 36.6089 -87.3144 133° Southeast 467 537 29,200 -960 Descending Memphis Center
02:31PM 36.5292 -87.2089 133° Southeast 467 537 28,300 -960 Descending Memphis Center
02:32PM 36.4408 -87.0911 133° Southeast 467 537 27,300 -660 Descending Memphis Center
02:33PM 36.3564 -86.9811 134° Southeast 451 519 27,000 -180 Descending Memphis Center
02:34PM 36.2592 -86.8514 133° Southeast 456 525 27,000  Level Memphis Center
02:35PM 36.1722 -86.7344 133° Southeast 461 531 27,000  Level Memphis Center
02:36PM 36.0778 -86.6408 141° Southeast 444 511 27,000  Level Memphis Center
02:37PM 35.9878 -86.5631 145° Southeast 444 511 27,100 -60 Climbing Memphis Center
02:38PM 35.8853 -86.4806 147° Southeast 438 504 26,900 -900 Descending Memphis Center
02:39PM 35.7869 -86.4008 147° Southeast 438 504 25,400 -1,500 Descending Memphis Center
02:40PM 35.6883 -86.3236 148° Southeast 426 490 24,000 -1,200 Descending Memphis Center
02:41PM 35.5942 -86.2467 146° Southeast 426 490 23,000 -540 Descending Memphis Center
02:42PM 35.4956 -86.1697 148° Southeast 426 490 23,000  Level Memphis Center
02:44PM 35.2772 -85.9925 146° Southeast 429 494 23,000  Level Atlanta Center
02:45PM 35.1783 -85.9142 147° Southeast 429 494 23,000  Level Atlanta Center
02:46PM 35.0772 -85.8356 148° Southeast 429 494 23,000  Level Atlanta Center
02:47PM 34.9781 -85.7575 147° Southeast 429 494 23,000  Level Atlanta Center
02:48PM 34.8769 -85.6819 148° Southeast 424 488 23,000  Level Atlanta Center
02:49PM 34.7778 -85.5992 146° Southeast 424 488 23,000 -60 Level Atlanta Center
02:50PM 34.6744 -85.5214 148° Southeast 424 488 22,900 -540 Descending Atlanta Center
02:51PM 34.5833 -85.4492 147° Southeast 417 480 22,000 -900 Descending Atlanta Center
02:52PM 34.4986 -85.3772 145° Southeast 396 456 21,200 -780 Descending Atlanta Center
02:53PM 34.4792 -85.2508 101° East 352 405 20,500 -900 Descending Atlanta Center
02:54PM 34.4825 -85.1222 88° East 364 419 19,500 -1,200 Descending Atlanta Center
02:55PM 34.4119 -85.0586 143° Southeast 300 345 18,100 -1,440 Descending Atlanta Center
02:56PM 34.3181 -85.0497 176° South 297 342 16,700 -1,440 Descending Atlanta Center
02:57PM 34.2181 -85.0386 175° South 341 392 15,300 -1,380 Descending Atlanta Center
02:58PM 34.1181 -85.0275 175° South 363 418 14,000 -780 Descending Atlanta Center
02:59PM 34.0392 -84.9589 144° Southeast 343 395 13,800 -600 Descending Atlanta Center
03:00PM 33.9689 -84.8703 134° Southeast 348 400 12,800 -900 Descending Atlanta Center
03:01PM 33.8944 -84.7797 135° Southeast 353 406 12,000 -540 Descending Atlanta Center
03:02PM 33.8500 -84.7167 130° Southeast 325 374 12,000  Level Atlanta TRACON
03:03PM 33.8000 -84.6500 132° Southeast 295 339 12,000 -60 Level Atlanta TRACON
03:04PM 33.7333 -84.5833 140° Southeast 291 335 11,900 -900 Descending Atlanta TRACON
03:05PM 33.7333 -84.4667 90° East 313 360 10,300 -1,560 Descending Atlanta TRACON
03:06PM 33.7333 -84.3833 90° East 303 349 8,800 -1,560 Descending Atlanta TRACON
03:07PM 33.7333 -84.2833 90° East 280 322 7,200 -1,620 Descending Atlanta TRACON
03:08PM 33.7333 -84.2000 90° East 272 313 5,600 -1,140 Descending Atlanta TRACON
03:09PM 33.7333 -84.1000 90° East 265 305 5,000 -300 Descending Atlanta TRACON
03:10PM 33.7333 -84.0333 90° East 218 251 5,000  Level Atlanta TRACON
03:11PM 33.6833 -84.0000 151° Southeast 201 231 5,000  Level Atlanta TRACON
03:12PM 33.6500 -84.0333 220° Southwest 179 206 5,000  Level Atlanta TRACON
03:13PM 33.6500 -84.0833 270° West 181 208 5,000  Level Atlanta TRACON
03:14PM 33.6500 -84.1500 270° West 177 204 5,000 -360 Level Atlanta TRACON
03:15PM 33.6500 -84.2000 270° West 174 200 4,300 -900 Descending Atlanta TRACON
03:16PM 33.6500 -84.2667 270° West 182 209 3,300 -960 Descending Atlanta TRACON
03:17PM 33.6500 -84.3167 270° West 173 199 2,400 -900 Descending Atlanta TRACON
03:18PM 33.6500 -84.3667 270° West 142 163 1,600 -840 Descending Atlanta TRACON
03:20PM 33.6333 -84.4167 266° West  Level FlightAware Approximate
03:27PM 33.6367 -84.4279 266° West  Level Estimated